Terminal Aerodrome Forecast
Issued by NWS

Home | Current Version | Previous Version | Text Only | Print | Product List | Glossary On
Versions: 1 2 3 4 5 6 7 8 9 10 11 12 13 14 15 16 17 18 19 20 21 22 23 24 25 26 27 28 29 30 31 32 33 34 35 36 37 38 39 40 41 42 43 44 45 46 47
000
FTUS45 KGJT 020600 AAA
TAFEGE
TAF AMD
KEGE 020600Z 0206/0306 11003KT 5SM -SN BR VCSH SCT007 OVC012
      TEMPO 0206/0210 1 1/2SM -SN BR FEW003 BKN007
     FM021600 21005KT P6SM VCSH BKN025 OVC045
     FM021900 23012G20KT P6SM VCSH BKN025 OVC040
     FM022300 25012G20KT 4SM -RA BR SCT007 BKN015 OVC025
      AMD LTD TO CLD VIS AND WIND TIL 021400=

USA.gov is the U.S. government's official web portal to all federal, state and local government web resources and services.